Terminal Aerodrome Forecast
Issued by NWS

Home | Current Version | Previous Version | Text Only | Print | Product List | Glossary Off
Versions: 1 2 3 4 5 6 7 8 9 10 11 12 13 14 15 16 17 18 19 20 21 22 23 24 25

725
FTUS43 KGRB 220428 AAA
TAFCWA
TAF AMD
KCWA 220428Z 2204/2224 24010G15KT P6SM VCSH OVC008
      TEMPO 2204/2208 3SM -RA BR OVC004
     FM221200 26009KT P6SM OVC010
     FM221600 26010G20KT P6SM BKN020
     FM221900 26011G20KT P6SM BKN040
     FM222100 26009KT P6SM BKN040=

USA.gov is the U.S. government's official web portal to all federal, state and local government web resources and services.